Hoboken, New Jersey
Current Conditions -  °F | °C
As of 4:51 AM on Saturday 22 Nov 2014 (Local Time) from KNYC Reporting Station
Clear Clear  
Wind Chill: 29°   Ceiling: Unl
Heat Index: 29°   Visibility: 10mi
Dew Point: 10°   Wind: 0mph
Humidity: 45%   Direction: NA
Pressure: 30.49"   Gusts: NA
Location:  40.74°N, 74.03°W
Report Text: KNYC 220951Z AUTO 00000KT 10SM CLR M02/M12 A3049 RMK AO2 SLP319 T10171122 $
Loading
Personal Weather Stations






























Interactive Weather Map New forecast layout! Learn more

10-Day Weather Forecast

Advertisements
Track Severe Weather on mobile